sensor_id;sensor_type;location;lat;lon;timestamp;pressure;altitude;pressure_sealevel;temperature;humidity
75051;BME280;63628;47.656;11.310;2023-08-12T00:00:56;95244.47;;;22.97;60.73
75051;BME280;63628;47.656;11.310;2023-08-12T00:03:24;95242.28;;;22.99;60.51
75051;BME280;63628;47.656;11.310;2023-08-12T00:05:51;95229.88;;;22.85;60.91
75051;BME280;63628;47.656;11.310;2023-08-12T00:08:18;95232.38;;;22.95;60.43
75051;BME280;63628;47.656;11.310;2023-08-12T00:10:45;95233.47;;;22.80;60.85
75051;BME280;63628;47.656;11.310;2023-08-12T00:13:11;95231.59;;;22.75;60.95
75051;BME280;63628;47.656;11.310;2023-08-12T00:15:40;95234.78;;;22.83;60.77
75051;BME280;63628;47.656;11.310;2023-08-12T00:18:07;95228.50;;;21.66;56.58
75051;BME280;63628;47.656;11.310;2023-08-12T00:20:35;95229.63;;;22.35;62.00
75051;BME280;63628;47.656;11.310;2023-08-12T00:23:04;95221.91;;;22.74;61.06
75051;BME280;63628;47.656;11.310;2023-08-12T00:25:31;95225.66;;;22.78;60.62
75051;BME280;63628;47.656;11.310;2023-08-12T00:27:57;95227.25;;;22.80;60.65
75051;BME280;63628;47.656;11.310;2023-08-12T00:30:24;95219.75;;;22.76;60.69
75051;BME280;63628;47.656;11.310;2023-08-12T00:32:51;95222.75;;;21.54;63.73
75051;BME280;63628;47.656;11.310;2023-08-12T00:35:17;95217.28;;;22.48;61.29
75051;BME280;63628;47.656;11.310;2023-08-12T00:37:46;95214.25;;;19.18;62.37
75051;BME280;63628;47.656;11.310;2023-08-12T00:40:13;95216.41;;;21.63;63.40
75051;BME280;63628;47.656;11.310;2023-08-12T00:42:39;95208.34;;;22.33;61.39
75051;BME280;63628;47.656;11.310;2023-08-12T00:45:09;95205.25;;;22.40;61.16
75051;BME280;63628;47.656;11.310;2023-08-12T00:47:36;95209.38;;;22.51;60.81
75051;BME280;63628;47.656;11.310;2023-08-12T00:50:04;95204.47;;;22.39;61.14
75051;BME280;63628;47.656;11.310;2023-08-12T00:52:31;95200.66;;;21.33;58.95
75051;BME280;63628;47.656;11.310;2023-08-12T00:54:59;95203.56;;;22.30;61.26
75051;BME280;63628;47.656;11.310;2023-08-12T00:57:26;95198.28;;;22.39;61.00
75051;BME280;63628;47.656;11.310;2023-08-12T00:59:54;95199.88;;;22.40;60.88
75051;BME280;63628;47.656;11.310;2023-08-12T01:02:22;95206.19;;;22.49;60.64
75051;BME280;63628;47.656;11.310;2023-08-12T01:04:48;95197.19;;;22.54;60.46
75051;BME280;63628;47.656;11.310;2023-08-12T01:07:15;95204.88;;;22.46;60.53
75051;BME280;63628;47.656;11.310;2023-08-12T01:09:42;95201.06;;;22.34;60.82
75051;BME280;63628;47.656;11.310;2023-08-12T01:12:13;95200.69;;;22.40;60.75
75051;BME280;63628;47.656;11.310;2023-08-12T01:14:45;95199.06;;;22.39;60.71
75051;BME280;63628;47.656;11.310;2023-08-12T01:17:14;95200.25;;;22.33;60.72
75051;BME280;63628;47.656;11.310;2023-08-12T01:19:42;95202.75;;;22.30;60.83
75051;BME280;63628;47.656;11.310;2023-08-12T01:22:10;95197.66;;;22.28;61.01
75051;BME280;63628;47.656;11.310;2023-08-12T01:24:40;95194.03;;;22.19;61.00
75051;BME280;63628;47.656;11.310;2023-08-12T01:27:09;95195.75;;;22.29;60.77
75051;BME280;63628;47.656;11.310;2023-08-12T01:29:39;95193.34;;;22.27;60.61
75051;BME280;63628;47.656;11.310;2023-08-12T01:32:12;95189.06;;;22.26;60.85
75051;BME280;63628;47.656;11.310;2023-08-12T01:34:44;95204.56;;;18.32;69.32
75051;BME280;63628;47.656;11.310;2023-08-12T01:37:17;95192.31;;;21.53;62.53
75051;BME280;63628;47.656;11.310;2023-08-12T01:39:45;95196.00;;;21.95;61.33
75051;BME280;63628;47.656;11.310;2023-08-12T01:42:13;95189.72;;;21.99;61.24
75051;BME280;63628;47.656;11.310;2023-08-12T01:44:40;95188.88;;;22.04;60.96
75051;BME280;63628;47.656;11.310;2023-08-12T01:47:08;95175.94;;;22.01;61.02
75051;BME280;63628;47.656;11.310;2023-08-12T01:49:36;95183.19;;;22.05;60.70
75051;BME280;63628;47.656;11.310;2023-08-12T01:52:03;95194.31;;;18.60;62.08
75051;BME280;63628;47.656;11.310;2023-08-12T01:54:30;95183.59;;;20.95;63.87
75051;BME280;63628;47.656;11.310;2023-08-12T01:57:04;95188.44;;;21.78;61.37
75051;BME280;63628;47.656;11.310;2023-08-12T01:59:32;95180.41;;;21.92;60.96
75051;BME280;63628;47.656;11.310;2023-08-12T02:01:59;95176.31;;;21.94;60.78
75051;BME280;63628;47.656;11.310;2023-08-12T02:04:25;95176.69;;;18.33;63.38
75051;BME280;63628;47.656;11.310;2023-08-12T02:06:52;95176.03;;;18.87;63.05
75051;BME280;63628;47.656;11.310;2023-08-12T02:09:19;95172.00;;;18.90;60.49
75051;BME280;63628;47.656;11.310;2023-08-12T02:11:46;95165.22;;;20.78;64.11
75051;BME280;63628;47.656;11.310;2023-08-12T02:14:14;95158.38;;;21.52;60.70
75051;BME280;63628;47.656;11.310;2023-08-12T02:16:41;95153.72;;;21.58;61.33
75051;BME280;63628;47.656;11.310;2023-08-12T02:19:07;95162.38;;;21.73;60.93
75051;BME280;63628;47.656;11.310;2023-08-12T02:21:34;95155.88;;;21.74;61.01
75051;BME280;63628;47.656;11.310;2023-08-12T02:24:01;95151.50;;;21.78;60.80
75051;BME280;63628;47.656;11.310;2023-08-12T02:26:28;95151.25;;;19.50;66.62
75051;BME280;63628;47.656;11.310;2023-08-12T02:28:54;95145.47;;;20.06;58.74
75051;BME280;63628;47.656;11.310;2023-08-12T02:31:22;95145.63;;;21.39;61.75
75051;BME280;63628;47.656;11.310;2023-08-12T02:33:49;95145.63;;;21.58;61.14
75051;BME280;63628;47.656;11.310;2023-08-12T02:36:16;95141.97;;;21.67;60.83
75051;BME280;63628;47.656;11.310;2023-08-12T02:38:42;95138.41;;;21.72;60.62
75051;BME280;63628;47.656;11.310;2023-08-12T02:41:09;95139.00;;;19.78;58.08
75051;BME280;63628;47.656;11.310;2023-08-12T02:43:36;95138.78;;;21.28;61.70
75051;BME280;63628;47.656;11.310;2023-08-12T02:46:03;95131.22;;;21.48;61.29
75051;BME280;63628;47.656;11.310;2023-08-12T02:48:31;95132.47;;;21.56;60.85
75051;BME280;63628;47.656;11.310;2023-08-12T02:50:57;95132.84;;;20.35;63.38
75051;BME280;63628;47.656;11.310;2023-08-12T02:53:24;95135.88;;;20.81;54.20
75051;BME280;63628;47.656;11.310;2023-08-12T02:55:51;95129.78;;;20.71;63.44
75051;BME280;63628;47.656;11.310;2023-08-12T02:58:17;95126.03;;;21.33;61.42
75051;BME280;63628;47.656;11.310;2023-08-12T03:00:44;95122.56;;;21.51;60.89
75051;BME280;63628;47.656;11.310;2023-08-12T03:03:11;95124.47;;;21.51;60.78
75051;BME280;63628;47.656;11.310;2023-08-12T03:05:39;95126.34;;;21.50;60.60
75051;BME280;63628;47.656;11.310;2023-08-12T03:08:07;95128.28;;;21.45;60.90
75051;BME280;63628;47.656;11.310;2023-08-12T03:10:34;95121.97;;;21.36;60.92
75051;BME280;63628;47.656;11.310;2023-08-12T03:13:00;95128.53;;;21.48;60.77
75051;BME280;63628;47.656;11.310;2023-08-12T03:15:27;95122.91;;;21.45;60.73
75051;BME280;63628;47.656;11.310;2023-08-12T03:17:54;95119.28;;;21.36;60.88
75051;BME280;63628;47.656;11.310;2023-08-12T03:20:22;95119.16;;;21.46;60.42
75051;BME280;63628;47.656;11.310;2023-08-12T03:22:50;95119.50;;;21.39;60.56
75051;BME280;63628;47.656;11.310;2023-08-12T03:25:17;95119.28;;;21.36;60.80
75051;BME280;63628;47.656;11.310;2023-08-12T03:27:44;95120.06;;;20.51;62.82
75051;BME280;63628;47.656;11.310;2023-08-12T03:30:11;95115.81;;;21.11;61.23
75051;BME280;63628;47.656;11.310;2023-08-12T03:32:38;95116.72;;;21.26;60.71
75051;BME280;63628;47.656;11.310;2023-08-12T03:35:05;95116.59;;;21.36;60.73
75051;BME280;63628;47.656;11.310;2023-08-12T03:37:31;95117.78;;;20.39;62.25
75051;BME280;63628;47.656;11.310;2023-08-12T03:39:59;95122.47;;;20.52;62.77
75051;BME280;63628;47.656;11.310;2023-08-12T03:42:26;95127.25;;;20.79;61.62
75051;BME280;63628;47.656;11.310;2023-08-12T03:44:53;95111.81;;;21.09;60.85
75051;BME280;63628;47.656;11.310;2023-08-12T03:47:19;95125.59;;;21.26;60.51
75051;BME280;63628;47.656;11.310;2023-08-12T03:49:48;95117.56;;;21.21;60.68
75051;BME280;63628;47.656;11.310;2023-08-12T03:52:15;95129.19;;;20.26;63.14
75051;BME280;63628;47.656;11.310;2023-08-12T03:54:42;95122.94;;;21.02;61.03
75051;BME280;63628;47.656;11.310;2023-08-12T03:57:10;95121.72;;;21.13;60.53
75051;BME280;63628;47.656;11.310;2023-08-12T03:59:37;95111.16;;;21.17;60.54
75051;BME280;63628;47.656;11.310;2023-08-12T04:02:04;95103.91;;;21.17;60.40
75051;BME280;63628;47.656;11.310;2023-08-12T04:04:30;95115.38;;;17.56;69.75
75051;BME280;63628;47.656;11.310;2023-08-12T04:06:57;95112.63;;;20.43;62.51
75051;BME280;63628;47.656;11.310;2023-08-12T04:09:24;95110.31;;;20.79;61.44
75051;BME280;63628;47.656;11.310;2023-08-12T04:11:51;95112.97;;;20.84;61.12
75051;BME280;63628;47.656;11.310;2023-08-12T04:14:19;95110.38;;;20.98;60.81
75051;BME280;63628;47.656;11.310;2023-08-12T04:16:45;95124.28;;;16.68;68.94
75051;BME280;63628;47.656;11.310;2023-08-12T04:19:12;95111.63;;;20.05;63.28
75051;BME280;63628;47.656;11.310;2023-08-12T04:21:39;95116.63;;;19.58;58.51
75051;BME280;63628;47.656;11.310;2023-08-12T04:24:07;95115.44;;;20.56;61.81
75051;BME280;63628;47.656;11.310;2023-08-12T04:26:34;95116.66;;;19.43;59.06
75051;BME280;63628;47.656;11.310;2023-08-12T04:29:00;95115.03;;;20.44;62.01
75051;BME280;63628;47.656;11.310;2023-08-12T04:31:28;95118.59;;;17.88;61.73
75051;BME280;63628;47.656;11.310;2023-08-12T04:33:55;95116.38;;;19.55;64.34
75051;BME280;63628;47.656;11.310;2023-08-12T04:36:22;95119.38;;;20.40;61.85
75051;BME280;63628;47.656;11.310;2023-08-12T04:38:49;95123.03;;;20.49;61.29
75051;BME280;63628;47.656;11.310;2023-08-12T04:41:16;95122.34;;;20.63;61.30
75051;BME280;63628;47.656;11.310;2023-08-12T04:43:43;95121.84;;;19.35;59.31
75051;BME280;63628;47.656;11.310;2023-08-12T04:46:09;95128.56;;;20.34;61.91
75051;BME280;63628;47.656;11.310;2023-08-12T04:48:37;95122.06;;;20.40;57.96
75051;BME280;63628;47.656;11.310;2023-08-12T04:51:04;95124.06;;;20.53;61.28
75051;BME280;63628;47.656;11.310;2023-08-12T04:53:32;95118.63;;;20.58;61.24
75051;BME280;63628;47.656;11.310;2023-08-12T04:55:58;95119.59;;;20.68;60.81
75051;BME280;63628;47.656;11.310;2023-08-12T04:58:25;95119.03;;;20.71;60.58
75051;BME280;63628;47.656;11.310;2023-08-12T05:00:52;95127.34;;;18.45;67.74
75051;BME280;63628;47.656;11.310;2023-08-12T05:03:19;95131.91;;;19.92;63.33
75051;BME280;63628;47.656;11.310;2023-08-12T05:05:50;95124.72;;;20.45;61.64
75051;BME280;63628;47.656;11.310;2023-08-12T05:08:17;95125.75;;;20.20;62.41
75051;BME280;63628;47.656;11.310;2023-08-12T05:10:43;95128.97;;;19.10;67.84
75051;BME280;63628;47.656;11.310;2023-08-12T05:13:12;95129.84;;;17.85;71.58
75051;BME280;63628;47.656;11.310;2023-08-12T05:15:39;95130.88;;;17.28;76.06
75051;BME280;63628;47.656;11.310;2023-08-12T05:18:06;95127.47;;;18.89;68.27
75051;BME280;63628;47.656;11.310;2023-08-12T05:20:33;95127.81;;;20.00;63.63
75051;BME280;63628;47.656;11.310;2023-08-12T05:23:01;95120.25;;;20.31;62.23
75051;BME280;63628;47.656;11.310;2023-08-12T05:25:28;95132.56;;;18.85;70.44
75051;BME280;63628;47.656;11.310;2023-08-12T05:27:55;95139.56;;;18.86;70.06
75051;BME280;63628;47.656;11.310;2023-08-12T05:30:21;95131.81;;;20.02;63.62
75051;BME280;63628;47.656;11.310;2023-08-12T05:32:48;95131.44;;;20.14;67.05
75051;BME280;63628;47.656;11.310;2023-08-12T05:35:14;95131.13;;;20.20;62.82
75051;BME280;63628;47.656;11.310;2023-08-12T05:37:41;95136.63;;;19.32;69.36
75051;BME280;63628;47.656;11.310;2023-08-12T05:40:10;95136.13;;;18.60;74.90
75051;BME280;63628;47.656;11.310;2023-08-12T05:42:38;95141.75;;;19.73;65.77
75051;BME280;63628;47.656;11.310;2023-08-12T05:45:05;95142.13;;;19.90;70.13
75051;BME280;63628;47.656;11.310;2023-08-12T05:47:34;95143.56;;;20.11;66.91
75051;BME280;63628;47.656;11.310;2023-08-12T05:50:01;95141.81;;;20.25;71.46
75051;BME280;63628;47.656;11.310;2023-08-12T05:52:27;95145.22;;;20.36;69.84
75051;BME280;63628;47.656;11.310;2023-08-12T05:54:54;95137.94;;;20.37;63.68
75051;BME280;63628;47.656;11.310;2023-08-12T05:57:22;95134.94;;;20.43;65.32
75051;BME280;63628;47.656;11.310;2023-08-12T05:59:49;95143.34;;;20.61;63.74
75051;BME280;63628;47.656;11.310;2023-08-12T06:02:15;95142.66;;;20.50;63.07
75051;BME280;63628;47.656;11.310;2023-08-12T06:04:42;95145.31;;;21.21;68.36
75051;BME280;63628;47.656;11.310;2023-08-12T06:07:09;95134.81;;;21.20;67.71
75051;BME280;63628;47.656;11.310;2023-08-12T06:09:36;95139.75;;;21.56;69.18
75051;BME280;63628;47.656;11.310;2023-08-12T06:12:04;95134.16;;;21.09;63.38
75051;BME280;63628;47.656;11.310;2023-08-12T06:14:32;95141.00;;;22.14;68.99
75051;BME280;63628;47.656;11.310;2023-08-12T06:16:59;95138.75;;;22.63;67.55
75051;BME280;63628;47.656;11.310;2023-08-12T06:19:26;95138.94;;;22.66;67.06
75051;BME280;63628;47.656;11.310;2023-08-12T06:21:52;95138.13;;;22.66;67.61
75051;BME280;63628;47.656;11.310;2023-08-12T06:24:19;95136.47;;;22.97;67.50
75051;BME280;63628;47.656;11.310;2023-08-12T06:26:46;95136.72;;;23.23;66.19
75051;BME280;63628;47.656;11.310;2023-08-12T06:29:12;95136.69;;;23.37;63.99
75051;BME280;63628;47.656;11.310;2023-08-12T06:31:40;95132.91;;;22.14;61.91
75051;BME280;63628;47.656;11.310;2023-08-12T06:34:07;95126.03;;;23.18;66.35
75051;BME280;63628;47.656;11.310;2023-08-12T06:36:34;95130.00;;;22.85;66.35
75051;BME280;63628;47.656;11.310;2023-08-12T06:39:00;95126.97;;;23.00;68.27
75051;BME280;63628;47.656;11.310;2023-08-12T06:41:27;95121.88;;;22.98;66.55
75051;BME280;63628;47.656;11.310;2023-08-12T06:43:54;95120.75;;;22.72;68.15
75051;BME280;63628;47.656;11.310;2023-08-12T06:46:20;95121.66;;;22.67;68.94
75051;BME280;63628;47.656;11.310;2023-08-12T06:48:48;95119.38;;;22.88;69.00
75051;BME280;63628;47.656;11.310;2023-08-12T06:51:15;95111.78;;;22.90;69.86
75051;BME280;63628;47.656;11.310;2023-08-12T06:53:42;95112.19;;;22.84;69.71
75051;BME280;63628;47.656;11.310;2023-08-12T06:56:08;95112.19;;;22.84;69.55
75051;BME280;63628;47.656;11.310;2023-08-12T06:58:35;95109.97;;;22.58;69.78
75051;BME280;63628;47.656;11.310;2023-08-12T07:01:02;95112.75;;;22.67;69.92
75051;BME280;63628;47.656;11.310;2023-08-12T07:03:28;95104.56;;;22.31;65.65
75051;BME280;63628;47.656;11.310;2023-08-12T07:05:57;95110.25;;;22.29;63.97
75051;BME280;63628;47.656;11.310;2023-08-12T07:08:23;95103.97;;;21.69;63.87
75051;BME280;63628;47.656;11.310;2023-08-12T07:10:50;95115.53;;;22.34;72.40
75051;BME280;63628;47.656;11.310;2023-08-12T07:13:17;95110.44;;;22.33;66.67
75051;BME280;63628;47.656;11.310;2023-08-12T07:15:43;95107.66;;;22.38;65.66
75051;BME280;63628;47.656;11.310;2023-08-12T07:18:10;95107.59;;;21.78;62.96
75051;BME280;63628;47.656;11.310;2023-08-12T07:20:37;95106.78;;;21.77;65.36
75051;BME280;63628;47.656;11.310;2023-08-12T07:23:05;95108.06;;;22.31;72.46
75051;BME280;63628;47.656;11.310;2023-08-12T07:25:32;95104.56;;;22.58;72.12
75051;BME280;63628;47.656;11.310;2023-08-12T07:27:59;95100.66;;;22.64;72.15
75051;BME280;63628;47.656;11.310;2023-08-12T07:30:25;95101.00;;;22.90;71.39
75051;BME280;63628;47.656;11.310;2023-08-12T07:32:52;95097.66;;;23.07;72.20
75051;BME280;63628;47.656;11.310;2023-08-12T07:35:19;95105.75;;;22.66;69.85
75051;BME280;63628;47.656;11.310;2023-08-12T07:37:45;95109.19;;;22.85;68.68
75051;BME280;63628;47.656;11.310;2023-08-12T07:40:14;95105.78;;;22.80;72.97
75051;BME280;63628;47.656;11.310;2023-08-12T07:42:40;95109.16;;;23.13;73.00
75051;BME280;63628;47.656;11.310;2023-08-12T07:45:08;95109.78;;;23.32;72.40
75051;BME280;63628;47.656;11.310;2023-08-12T07:47:35;95107.78;;;23.37;70.63
75051;BME280;63628;47.656;11.310;2023-08-12T07:50:06;95110.09;;;23.44;71.59
75051;BME280;63628;47.656;11.310;2023-08-12T07:52:33;95112.00;;;23.44;71.90
75051;BME280;63628;47.656;11.310;2023-08-12T07:55:00;95117.97;;;23.54;71.16
75051;BME280;63628;47.656;11.310;2023-08-12T07:57:28;95118.59;;;23.74;69.18
75051;BME280;63628;47.656;11.310;2023-08-12T07:59:55;95116.28;;;23.81;70.00
75051;BME280;63628;47.656;11.310;2023-08-12T08:02:21;95107.91;;;23.68;66.53
75051;BME280;63628;47.656;11.310;2023-08-12T08:04:48;95106.78;;;23.92;67.50
75051;BME280;63628;47.656;11.310;2023-08-12T08:07:16;95108.78;;;23.78;66.12
75051;BME280;63628;47.656;11.310;2023-08-12T08:09:43;95114.19;;;22.78;59.70
75051;BME280;63628;47.656;11.310;2023-08-12T08:12:10;95116.34;;;22.21;65.63
75051;BME280;63628;47.656;11.310;2023-08-12T08:14:38;95110.13;;;23.66;68.75
75051;BME280;63628;47.656;11.310;2023-08-12T08:17:05;95108.38;;;24.38;64.65
75051;BME280;63628;47.656;11.310;2023-08-12T08:19:32;95110.00;;;24.47;64.92
75051;BME280;63628;47.656;11.310;2023-08-12T08:21:59;95109.06;;;24.91;64.79
75051;BME280;63628;47.656;11.310;2023-08-12T08:24:26;95102.41;;;25.06;62.54
75051;BME280;63628;47.656;11.310;2023-08-12T08:26:53;95101.53;;;25.37;63.82
75051;BME280;63628;47.656;11.310;2023-08-12T08:29:19;95106.00;;;25.41;62.95
75051;BME280;63628;47.656;11.310;2023-08-12T08:31:47;95101.81;;;25.35;62.27
75051;BME280;63628;47.656;11.310;2023-08-12T08:34:14;95095.78;;;25.55;62.36
75051;BME280;63628;47.656;11.310;2023-08-12T08:36:41;95093.53;;;26.09;60.00
75051;BME280;63628;47.656;11.310;2023-08-12T08:39:08;95105.53;;;26.55;58.67
75051;BME280;63628;47.656;11.310;2023-08-12T08:41:37;95097.66;;;27.09;56.39
75051;BME280;63628;47.656;11.310;2023-08-12T08:44:07;95104.09;;;25.68;61.72
75051;BME280;63628;47.656;11.310;2023-08-12T08:46:34;95103.28;;;25.58;61.65
75051;BME280;63628;47.656;11.310;2023-08-12T08:49:02;95108.41;;;24.46;63.96
75051;BME280;63628;47.656;11.310;2023-08-12T08:51:31;95116.63;;;24.10;65.88
75051;BME280;63628;47.656;11.310;2023-08-12T08:54:02;95116.34;;;25.48;65.47
75051;BME280;63628;47.656;11.310;2023-08-12T08:56:29;95113.22;;;26.53;58.61
75051;BME280;63628;47.656;11.310;2023-08-12T08:58:57;95112.72;;;26.60;58.40
75051;BME280;63628;47.656;11.310;2023-08-12T09:01:24;95117.38;;;28.10;57.14
75051;BME280;63628;47.656;11.310;2023-08-12T09:03:52;95120.44;;;28.54;55.03
75051;BME280;63628;47.656;11.310;2023-08-12T09:06:21;95114.78;;;27.93;57.63
75051;BME280;63628;47.656;11.310;2023-08-12T09:08:51;95110.44;;;27.08;56.74
75051;BME280;63628;47.656;11.310;2023-08-12T09:11:19;95115.91;;;27.29;57.59
75051;BME280;63628;47.656;11.310;2023-08-12T09:13:46;95117.50;;;27.30;55.29
75051;BME280;63628;47.656;11.310;2023-08-12T09:16:13;95119.47;;;27.21;56.21
75051;BME280;63628;47.656;11.310;2023-08-12T09:18:40;95117.94;;;26.73;58.87
75051;BME280;63628;47.656;11.310;2023-08-12T09:21:08;95130.09;;;26.76;59.63
75051;BME280;63628;47.656;11.310;2023-08-12T09:23:37;95123.38;;;26.65;60.84
75051;BME280;63628;47.656;11.310;2023-08-12T09:26:12;95129.25;;;26.29;61.40
75051;BME280;63628;47.656;11.310;2023-08-12T09:28:39;95126.97;;;27.24;58.34
75051;BME280;63628;47.656;11.310;2023-08-12T09:31:05;95123.38;;;27.83;60.07
75051;BME280;63628;47.656;11.310;2023-08-12T09:33:32;95124.84;;;28.01;59.42
75051;BME280;63628;47.656;11.310;2023-08-12T09:35:59;95125.41;;;28.27;59.74
75051;BME280;63628;47.656;11.310;2023-08-12T09:38:25;95125.75;;;27.84;56.18
75051;BME280;63628;47.656;11.310;2023-08-12T09:40:53;95122.00;;;27.26;59.66
75051;BME280;63628;47.656;11.310;2023-08-12T09:43:23;95122.97;;;25.07;64.11
75051;BME280;63628;47.656;11.310;2023-08-12T09:45:50;95118.63;;;27.00;58.31
75051;BME280;63628;47.656;11.310;2023-08-12T09:48:17;95123.69;;;24.20;56.92
75051;BME280;63628;47.656;11.310;2023-08-12T09:50:44;95126.38;;;25.30;65.17
75051;BME280;63628;47.656;11.310;2023-08-12T09:53:11;95122.69;;;26.85;62.43
75051;BME280;63628;47.656;11.310;2023-08-12T09:55:38;95125.66;;;28.47;56.54
75051;BME280;63628;47.656;11.310;2023-08-12T09:58:07;95131.19;;;28.26;55.40
75051;BME280;63628;47.656;11.310;2023-08-12T10:00:36;95116.81;;;27.84;54.87
75051;BME280;63628;47.656;11.310;2023-08-12T10:03:03;95126.13;;;27.32;57.28
75051;BME280;63628;47.656;11.310;2023-08-12T10:05:31;95118.34;;;27.72;56.97
75051;BME280;63628;47.656;11.310;2023-08-12T10:07:58;95120.72;;;27.74;53.01
75051;BME280;63628;47.656;11.310;2023-08-12T10:10:28;95116.56;;;26.59;55.16
75051;BME280;63628;47.656;11.310;2023-08-12T10:12:56;95126.34;;;25.13;58.17
75051;BME280;63628;47.656;11.310;2023-08-12T10:15:25;95115.88;;;25.37;59.58
75051;BME280;63628;47.656;11.310;2023-08-12T10:17:52;95114.94;;;26.66;57.16
75051;BME280;63628;47.656;11.310;2023-08-12T10:20:21;95119.88;;;26.73;56.59
75051;BME280;63628;47.656;11.310;2023-08-12T10:22:49;95115.13;;;27.50;54.39
75051;BME280;63628;47.656;11.310;2023-08-12T10:25:18;95115.06;;;26.78;55.55
75051;BME280;63628;47.656;11.310;2023-08-12T10:27:45;95116.88;;;26.57;55.42
75051;BME280;63628;47.656;11.310;2023-08-12T10:30:13;95109.00;;;26.73;54.37
75051;BME280;63628;47.656;11.310;2023-08-12T10:32:42;95108.31;;;27.14;53.60
75051;BME280;63628;47.656;11.310;2023-08-12T10:35:09;95106.06;;;27.16;53.26
75051;BME280;63628;47.656;11.310;2023-08-12T10:37:36;95100.75;;;29.18;53.98
75051;BME280;63628;47.656;11.310;2023-08-12T10:40:05;95111.47;;;28.41;50.59
75051;BME280;63628;47.656;11.310;2023-08-12T10:42:40;95098.63;;;27.55;51.96
75051;BME280;63628;47.656;11.310;2023-08-12T10:45:09;95102.44;;;25.32;58.73
75051;BME280;63628;47.656;11.310;2023-08-12T10:47:42;95092.94;;;27.18;52.75
75051;BME280;63628;47.656;11.310;2023-08-12T10:50:17;95097.44;;;27.14;51.41
75051;BME280;63628;47.656;11.310;2023-08-12T10:52:44;95094.38;;;27.45;51.28
75051;BME280;63628;47.656;11.310;2023-08-12T10:55:19;95093.88;;;26.93;53.40
75051;BME280;63628;47.656;11.310;2023-08-12T10:57:48;95091.13;;;27.01;52.34
75051;BME280;63628;47.656;11.310;2023-08-12T11:00:16;95092.13;;;28.67;50.99
75051;BME280;63628;47.656;11.310;2023-08-12T11:02:49;95092.16;;;28.34;48.37
75051;BME280;63628;47.656;11.310;2023-08-12T11:05:16;95094.34;;;26.01;57.55
75051;BME280;63628;47.656;11.310;2023-08-12T11:07:46;95092.94;;;27.18;50.96
75051;BME280;63628;47.656;11.310;2023-08-12T11:10:15;95084.59;;;28.06;51.32
75051;BME280;63628;47.656;11.310;2023-08-12T11:12:48;95085.94;;;27.59;50.13
75051;BME280;63628;47.656;11.310;2023-08-12T11:15:15;95081.28;;;26.50;54.21
75051;BME280;63628;47.656;11.310;2023-08-12T11:17:42;95072.84;;;27.94;54.17
75051;BME280;63628;47.656;11.310;2023-08-12T11:20:12;95080.94;;;28.60;48.93
75051;BME280;63628;47.656;11.310;2023-08-12T11:22:41;95081.81;;;27.94;49.81
75051;BME280;63628;47.656;11.310;2023-08-12T11:25:09;95081.56;;;27.45;50.39
75051;BME280;63628;47.656;11.310;2023-08-12T11:27:40;95070.41;;;27.59;50.43
75051;BME280;63628;47.656;11.310;2023-08-12T11:30:07;95072.22;;;28.09;51.98
75051;BME280;63628;47.656;11.310;2023-08-12T11:32:36;95063.56;;;29.50;48.27
75051;BME280;63628;47.656;11.310;2023-08-12T11:35:04;95064.47;;;29.42;45.54
75051;BME280;63628;47.656;11.310;2023-08-12T11:37:35;95067.16;;;27.87;49.29
75051;BME280;63628;47.656;11.310;2023-08-12T11:40:04;95065.88;;;28.62;47.73
75051;BME280;63628;47.656;11.310;2023-08-12T11:42:31;95061.38;;;29.55;49.38
75051;BME280;63628;47.656;11.310;2023-08-12T11:44:57;95058.59;;;27.97;48.83
75051;BME280;63628;47.656;11.310;2023-08-12T11:47:24;95050.53;;;29.07;47.12
75051;BME280;63628;47.656;11.310;2023-08-12T11:49:52;95054.97;;;28.05;49.12
75051;BME280;63628;47.656;11.310;2023-08-12T11:52:19;95049.03;;;28.36;49.52
75051;BME280;63628;47.656;11.310;2023-08-12T11:54:48;95060.44;;;28.05;48.86
75051;BME280;63628;47.656;11.310;2023-08-12T11:57:15;95058.56;;;27.64;49.15
75051;BME280;63628;47.656;11.310;2023-08-12T11:59:41;95057.72;;;27.01;49.71
75051;BME280;63628;47.656;11.310;2023-08-12T12:02:10;95063.22;;;26.54;52.77
75051;BME280;63628;47.656;11.310;2023-08-12T12:04:37;95058.41;;;26.13;55.84
75051;BME280;63628;47.656;11.310;2023-08-12T12:07:17;95056.84;;;26.50;54.65
75051;BME280;63628;47.656;11.310;2023-08-12T12:09:43;95053.88;;;26.72;53.67
75051;BME280;63628;47.656;11.310;2023-08-12T12:12:12;95053.84;;;26.81;50.97
75051;BME280;63628;47.656;11.310;2023-08-12T12:14:39;95051.03;;;26.98;52.03
75051;BME280;63628;47.656;11.310;2023-08-12T12:17:07;95056.22;;;25.80;58.23
75051;BME280;63628;47.656;11.310;2023-08-12T12:19:36;95054.63;;;25.53;59.57
75051;BME280;63628;47.656;11.310;2023-08-12T12:22:06;95054.00;;;25.48;60.38
75051;BME280;63628;47.656;11.310;2023-08-12T12:24:44;95051.16;;;25.44;60.04
75051;BME280;63628;47.656;11.310;2023-08-12T12:27:13;95051.91;;;25.62;59.30
75051;BME280;63628;47.656;11.310;2023-08-12T12:29:40;95047.78;;;25.73;59.21
75051;BME280;63628;47.656;11.310;2023-08-12T12:32:07;95041.91;;;25.45;60.75
75051;BME280;63628;47.656;11.310;2023-08-12T12:34:34;95038.53;;;25.40;60.82
75051;BME280;63628;47.656;11.310;2023-08-12T12:37:00;95036.16;;;25.38;61.64
75051;BME280;63628;47.656;11.310;2023-08-12T12:39:27;95045.69;;;25.36;62.15
75051;BME280;63628;47.656;11.310;2023-08-12T12:41:54;95037.88;;;25.34;62.16
75051;BME280;63628;47.656;11.310;2023-08-12T12:44:21;95042.81;;;25.32;62.22
75051;BME280;63628;47.656;11.310;2023-08-12T12:46:48;95045.06;;;25.30;62.93
75051;BME280;63628;47.656;11.310;2023-08-12T12:49:15;95045.38;;;25.28;62.33
75051;BME280;63628;47.656;11.310;2023-08-12T12:51:42;95037.09;;;25.25;62.51